sensor_id;sensor_type;location;lat;lon;timestamp;temperature;humidity
68248;SHT30;55064;49.636;12.164;2023-11-21T00:02:18;6.87;98.42
68248;SHT30;55064;49.636;12.164;2023-11-21T00:04:43;6.79;98.59
68248;SHT30;55064;49.636;12.164;2023-11-21T00:07:09;6.70;99.10
68248;SHT30;55064;49.636;12.164;2023-11-21T00:09:34;6.75;99.00
68248;SHT30;55064;49.636;12.164;2023-11-21T00:12:01;6.76;99.03
68248;SHT30;55064;49.636;12.164;2023-11-21T00:14:27;6.75;99.08
68248;SHT30;55064;49.636;12.164;2023-11-21T00:16:52;6.70;99.13
68248;SHT30;55064;49.636;12.164;2023-11-21T00:19:18;6.66;99.37
68248;SHT30;55064;49.636;12.164;2023-11-21T00:21:43;6.73;99.13
68248;SHT30;55064;49.636;12.164;2023-11-21T00:24:11;6.76;98.95
68248;SHT30;55064;49.636;12.164;2023-11-21T00:26:39;6.72;99.15
68248;SHT30;55064;49.636;12.164;2023-11-21T00:29:04;6.63;99.52
68248;SHT30;55064;49.636;12.164;2023-11-21T00:31:33;6.69;99.34
68248;SHT30;55064;49.636;12.164;2023-11-21T00:33:59;6.68;99.41
68248;SHT30;55064;49.636;12.164;2023-11-21T00:36:24;6.73;99.31
68248;SHT30;55064;49.636;12.164;2023-11-21T00:38:51;6.72;99.25
68248;SHT30;55064;49.636;12.164;2023-11-21T00:41:16;6.68;99.43
68248;SHT30;55064;49.636;12.164;2023-11-21T00:43:41;6.66;99.81
68248;SHT30;55064;49.636;12.164;2023-11-21T00:46:07;6.75;99.57
68248;SHT30;55064;49.636;12.164;2023-11-21T00:48:33;6.68;99.77
68248;SHT30;55064;49.636;12.164;2023-11-21T00:50:58;6.69;99.73
68248;SHT30;55064;49.636;12.164;2023-11-21T00:53:24;6.73;99.49
68248;SHT30;55064;49.636;12.164;2023-11-21T00:55:49;6.69;99.61
68248;SHT30;55064;49.636;12.164;2023-11-21T00:58:14;6.68;99.67
68248;SHT30;55064;49.636;12.164;2023-11-21T01:00:40;6.68;99.71
68248;SHT30;55064;49.636;12.164;2023-11-21T01:03:05;6.68;99.69
68248;SHT30;55064;49.636;12.164;2023-11-21T01:05:33;6.72;99.63
68248;SHT30;55064;49.636;12.164;2023-11-21T01:07:59;6.69;99.73
68248;SHT30;55064;49.636;12.164;2023-11-21T01:10:24;6.76;99.63
68248;SHT30;55064;49.636;12.164;2023-11-21T01:12:50;6.68;99.71
68248;SHT30;55064;49.636;12.164;2023-11-21T01:15:15;6.61;99.99
68248;SHT30;55064;49.636;12.164;2023-11-21T01:17:40;6.65;99.99
68248;SHT30;55064;49.636;12.164;2023-11-21T01:20:06;6.69;99.82
68248;SHT30;55064;49.636;12.164;2023-11-21T01:22:38;6.59;99.99
68248;SHT30;55064;49.636;12.164;2023-11-21T01:25:04;6.68;99.68
68248;SHT30;55064;49.636;12.164;2023-11-21T01:27:31;6.62;99.91
68248;SHT30;55064;49.636;12.164;2023-11-21T01:29:57;6.62;99.70
68248;SHT30;55064;49.636;12.164;2023-11-21T01:32:22;6.55;99.99
68248;SHT30;55064;49.636;12.164;2023-11-21T01:34:50;6.57;99.80
68248;SHT30;55064;49.636;12.164;2023-11-21T01:37:15;6.55;99.70
68248;SHT30;55064;49.636;12.164;2023-11-21T01:39:43;6.50;99.92
68248;SHT30;55064;49.636;12.164;2023-11-21T01:42:09;6.55;99.86
68248;SHT30;55064;49.636;12.164;2023-11-21T01:44:36;6.53;99.77
68248;SHT30;55064;49.636;12.164;2023-11-21T01:47:01;6.49;99.76
68248;SHT30;55064;49.636;12.164;2023-11-21T01:49:31;6.55;99.60
68248;SHT30;55064;49.636;12.164;2023-11-21T01:51:57;6.55;99.51
68248;SHT30;55064;49.636;12.164;2023-11-21T01:54:23;6.52;99.40
68248;SHT30;55064;49.636;12.164;2023-11-21T01:56:48;6.50;99.40
68248;SHT30;55064;49.636;12.164;2023-11-21T01:59:20;6.55;99.52
68248;SHT30;55064;49.636;12.164;2023-11-21T02:01:49;6.50;99.54
68248;SHT30;55064;49.636;12.164;2023-11-21T02:04:15;6.53;99.38
68248;SHT30;55064;49.636;12.164;2023-11-21T02:06:41;6.61;99.20
68248;SHT30;55064;49.636;12.164;2023-11-21T02:09:06;6.59;99.15
68248;SHT30;55064;49.636;12.164;2023-11-21T02:11:32;6.59;99.12
68248;SHT30;55064;49.636;12.164;2023-11-21T02:14:00;6.59;99.02
68248;SHT30;55064;49.636;12.164;2023-11-21T02:16:26;6.59;98.98
68248;SHT30;55064;49.636;12.164;2023-11-21T02:18:52;6.61;98.79
68248;SHT30;55064;49.636;12.164;2023-11-21T02:21:18;6.59;98.98
68248;SHT30;55064;49.636;12.164;2023-11-21T02:23:44;6.52;98.70
68248;SHT30;55064;49.636;12.164;2023-11-21T02:26:12;6.50;98.84
68248;SHT30;55064;49.636;12.164;2023-11-21T02:28:37;6.52;98.77
68248;SHT30;55064;49.636;12.164;2023-11-21T02:31:04;6.55;98.72
68248;SHT30;55064;49.636;12.164;2023-11-21T02:33:30;6.62;98.75
68248;SHT30;55064;49.636;12.164;2023-11-21T02:36:01;6.62;98.59
68248;SHT30;55064;49.636;12.164;2023-11-21T02:38:27;6.59;98.64
68248;SHT30;55064;49.636;12.164;2023-11-21T02:40:52;6.59;98.56
68248;SHT30;55064;49.636;12.164;2023-11-21T02:43:18;6.59;98.53
68248;SHT30;55064;49.636;12.164;2023-11-21T02:45:44;6.53;98.64
68248;SHT30;55064;49.636;12.164;2023-11-21T02:48:09;6.61;98.40
68248;SHT30;55064;49.636;12.164;2023-11-21T02:50:34;6.56;98.70
68248;SHT30;55064;49.636;12.164;2023-11-21T02:53:00;6.55;98.77
68248;SHT30;55064;49.636;12.164;2023-11-21T02:55:27;6.52;98.87
68248;SHT30;55064;49.636;12.164;2023-11-21T02:57:53;6.52;98.81
68248;SHT30;55064;49.636;12.164;2023-11-21T03:00:18;6.53;99.11
68248;SHT30;55064;49.636;12.164;2023-11-21T03:02:45;6.52;99.35
68248;SHT30;55064;49.636;12.164;2023-11-21T03:05:12;6.46;99.63
68248;SHT30;55064;49.636;12.164;2023-11-21T03:07:39;6.45;99.84
68248;SHT30;55064;49.636;12.164;2023-11-21T03:10:06;6.50;99.68
68248;SHT30;55064;49.636;12.164;2023-11-21T03:12:34;6.49;99.62
68248;SHT30;55064;49.636;12.164;2023-11-21T03:14:59;6.48;99.72
68248;SHT30;55064;49.636;12.164;2023-11-21T03:17:26;6.48;99.82
68248;SHT30;55064;49.636;12.164;2023-11-21T03:19:52;6.52;99.78
68248;SHT30;55064;49.636;12.164;2023-11-21T03:22:17;6.48;99.63
68248;SHT30;55064;49.636;12.164;2023-11-21T03:24:42;6.50;99.63
68248;SHT30;55064;49.636;12.164;2023-11-21T03:27:08;6.46;99.92
68248;SHT30;55064;49.636;12.164;2023-11-21T03:29:33;6.45;99.85
68248;SHT30;55064;49.636;12.164;2023-11-21T03:31:58;6.41;99.99
68248;SHT30;55064;49.636;12.164;2023-11-21T03:34:27;6.41;99.98
68248;SHT30;55064;49.636;12.164;2023-11-21T03:36:53;6.46;99.78
68248;SHT30;55064;49.636;12.164;2023-11-21T03:39:21;6.45;99.58
68248;SHT30;55064;49.636;12.164;2023-11-21T03:41:47;6.38;99.84
68248;SHT30;55064;49.636;12.164;2023-11-21T03:44:13;6.44;99.81
68248;SHT30;55064;49.636;12.164;2023-11-21T03:46:39;6.41;99.79
68248;SHT30;55064;49.636;12.164;2023-11-21T03:49:04;6.42;99.83
68248;SHT30;55064;49.636;12.164;2023-11-21T03:51:30;6.39;99.74
68248;SHT30;55064;49.636;12.164;2023-11-21T03:53:55;6.41;99.53
68248;SHT30;55064;49.636;12.164;2023-11-21T03:56:20;6.34;99.96
68248;SHT30;55064;49.636;12.164;2023-11-21T03:58:47;6.32;99.93
68248;SHT30;55064;49.636;12.164;2023-11-21T04:01:22;6.35;99.85
68248;SHT30;55064;49.636;12.164;2023-11-21T04:03:49;6.39;99.64
68248;SHT30;55064;49.636;12.164;2023-11-21T04:06:14;6.41;99.43
68248;SHT30;55064;49.636;12.164;2023-11-21T04:08:40;6.41;99.30
68248;SHT30;55064;49.636;12.164;2023-11-21T04:11:05;6.41;99.21
68248;SHT30;55064;49.636;12.164;2023-11-21T04:13:30;6.39;99.09
68248;SHT30;55064;49.636;12.164;2023-11-21T04:15:56;6.36;99.29
68248;SHT30;55064;49.636;12.164;2023-11-21T04:18:21;6.39;99.35
68248;SHT30;55064;49.636;12.164;2023-11-21T04:20:48;6.41;99.45
68248;SHT30;55064;49.636;12.164;2023-11-21T04:23:14;6.44;99.42
68248;SHT30;55064;49.636;12.164;2023-11-21T04:25:40;6.45;99.31
68248;SHT30;55064;49.636;12.164;2023-11-21T04:28:05;6.42;99.22
68248;SHT30;55064;49.636;12.164;2023-11-21T04:30:31;6.42;99.24
68248;SHT30;55064;49.636;12.164;2023-11-21T04:32:57;6.46;99.07
68248;SHT30;55064;49.636;12.164;2023-11-21T04:35:23;6.44;99.11
68248;SHT30;55064;49.636;12.164;2023-11-21T04:37:48;6.44;99.11
68248;SHT30;55064;49.636;12.164;2023-11-21T04:40:14;6.34;99.53
68248;SHT30;55064;49.636;12.164;2023-11-21T04:42:39;6.26;99.94
68248;SHT30;55064;49.636;12.164;2023-11-21T04:45:05;6.31;99.77
68248;SHT30;55064;49.636;12.164;2023-11-21T04:47:34;6.31;99.68
68248;SHT30;55064;49.636;12.164;2023-11-21T04:49:59;6.31;99.64
68248;SHT30;55064;49.636;12.164;2023-11-21T04:52:25;6.34;99.45
68248;SHT30;55064;49.636;12.164;2023-11-21T04:54:50;6.29;99.58
68248;SHT30;55064;49.636;12.164;2023-11-21T04:57:16;6.21;99.70
68248;SHT30;55064;49.636;12.164;2023-11-21T04:59:44;6.18;99.71
68248;SHT30;55064;49.636;12.164;2023-11-21T05:02:09;6.20;99.64
68248;SHT30;55064;49.636;12.164;2023-11-21T05:04:34;6.24;99.36
68248;SHT30;55064;49.636;12.164;2023-11-21T05:07:00;6.25;99.27
68248;SHT30;55064;49.636;12.164;2023-11-21T05:09:26;6.28;99.25
68248;SHT30;55064;49.636;12.164;2023-11-21T05:11:53;6.29;99.12
68248;SHT30;55064;49.636;12.164;2023-11-21T05:14:19;6.29;99.01
68248;SHT30;55064;49.636;12.164;2023-11-21T05:16:44;6.29;98.96
68248;SHT30;55064;49.636;12.164;2023-11-21T05:19:10;6.24;99.25
68248;SHT30;55064;49.636;12.164;2023-11-21T05:21:35;6.24;99.09
68248;SHT30;55064;49.636;12.164;2023-11-21T05:24:01;6.25;98.99
68248;SHT30;55064;49.636;12.164;2023-11-21T05:26:26;6.29;98.90
68248;SHT30;55064;49.636;12.164;2023-11-21T05:28:52;6.36;98.75
68248;SHT30;55064;49.636;12.164;2023-11-21T05:31:18;6.22;98.84
68248;SHT30;55064;49.636;12.164;2023-11-21T05:33:44;6.21;99.30
68248;SHT30;55064;49.636;12.164;2023-11-21T05:36:10;6.21;99.07
68248;SHT30;55064;49.636;12.164;2023-11-21T05:38:35;6.25;99.12
68248;SHT30;55064;49.636;12.164;2023-11-21T05:41:02;6.22;99.16
68248;SHT30;55064;49.636;12.164;2023-11-21T05:43:27;6.25;99.16
68248;SHT30;55064;49.636;12.164;2023-11-21T05:45:54;6.24;99.21
68248;SHT30;55064;49.636;12.164;2023-11-21T05:48:20;6.25;99.11
68248;SHT30;55064;49.636;12.164;2023-11-21T05:50:46;6.22;99.29
68248;SHT30;55064;49.636;12.164;2023-11-21T05:53:11;6.18;99.21
68248;SHT30;55064;49.636;12.164;2023-11-21T05:55:36;6.22;99.44
68248;SHT30;55064;49.636;12.164;2023-11-21T05:58:02;6.17;99.38
68248;SHT30;55064;49.636;12.164;2023-11-21T06:00:27;6.17;99.54
68248;SHT30;55064;49.636;12.164;2023-11-21T06:02:53;6.17;99.63
68248;SHT30;55064;49.636;12.164;2023-11-21T06:05:21;6.20;99.47
68248;SHT30;55064;49.636;12.164;2023-11-21T06:07:48;6.20;99.52
68248;SHT30;55064;49.636;12.164;2023-11-21T06:10:14;6.26;99.33
68248;SHT30;55064;49.636;12.164;2023-11-21T06:12:40;6.24;99.48
68248;SHT30;55064;49.636;12.164;2023-11-21T06:15:09;6.25;99.46
68248;SHT30;55064;49.636;12.164;2023-11-21T06:17:37;6.26;99.52
68248;SHT30;55064;49.636;12.164;2023-11-21T06:20:06;6.24;99.66
68248;SHT30;55064;49.636;12.164;2023-11-21T06:22:39;6.22;99.70
68248;SHT30;55064;49.636;12.164;2023-11-21T06:25:06;6.24;99.65
68248;SHT30;55064;49.636;12.164;2023-11-21T06:27:33;6.26;99.63
68248;SHT30;55064;49.636;12.164;2023-11-21T06:29:59;6.24;99.66
68248;SHT30;55064;49.636;12.164;2023-11-21T06:32:24;6.28;99.70
68248;SHT30;55064;49.636;12.164;2023-11-21T06:34:51;6.26;99.52
68248;SHT30;55064;49.636;12.164;2023-11-21T06:37:19;6.25;99.53
68248;SHT30;55064;49.636;12.164;2023-11-21T06:39:48;6.29;99.59
68248;SHT30;55064;49.636;12.164;2023-11-21T06:42:13;6.29;99.57
68248;SHT30;55064;49.636;12.164;2023-11-21T06:44:40;6.29;99.69
68248;SHT30;55064;49.636;12.164;2023-11-21T06:47:06;6.34;99.46
68248;SHT30;55064;49.636;12.164;2023-11-21T06:49:32;6.35;99.52
68248;SHT30;55064;49.636;12.164;2023-11-21T06:51:57;6.31;99.70
68248;SHT30;55064;49.636;12.164;2023-11-21T06:54:24;6.26;99.55
68248;SHT30;55064;49.636;12.164;2023-11-21T06:56:49;6.25;99.82
68248;SHT30;55064;49.636;12.164;2023-11-21T06:59:15;6.24;99.82
68248;SHT30;55064;49.636;12.164;2023-11-21T07:01:40;6.26;99.96
68248;SHT30;55064;49.636;12.164;2023-11-21T07:04:06;6.26;99.92
68248;SHT30;55064;49.636;12.164;2023-11-21T07:06:32;6.24;99.85
68248;SHT30;55064;49.636;12.164;2023-11-21T07:08:58;6.18;99.94
68248;SHT30;55064;49.636;12.164;2023-11-21T07:11:24;6.21;99.99
68248;SHT30;55064;49.636;12.164;2023-11-21T07:13:50;6.24;99.83
68248;SHT30;55064;49.636;12.164;2023-11-21T07:16:16;6.28;99.79
68248;SHT30;55064;49.636;12.164;2023-11-21T07:18:41;6.29;99.95
68248;SHT30;55064;49.636;12.164;2023-11-21T07:21:06;6.32;99.79
68248;SHT30;55064;49.636;12.164;2023-11-21T07:23:33;6.29;99.92
68248;SHT30;55064;49.636;12.164;2023-11-21T07:25:59;6.35;99.99
68248;SHT30;55064;49.636;12.164;2023-11-21T07:28:24;6.36;99.81
68248;SHT30;55064;49.636;12.164;2023-11-21T07:30:51;6.45;99.78
68248;SHT30;55064;49.636;12.164;2023-11-21T07:33:16;6.44;99.69
68248;SHT30;55064;49.636;12.164;2023-11-21T07:35:42;6.44;99.64
68248;SHT30;55064;49.636;12.164;2023-11-21T07:38:08;6.45;99.71
68248;SHT30;55064;49.636;12.164;2023-11-21T07:40:33;6.49;99.84
68248;SHT30;55064;49.636;12.164;2023-11-21T07:42:59;6.46;99.71
68248;SHT30;55064;49.636;12.164;2023-11-21T07:45:24;6.48;99.59
68248;SHT30;55064;49.636;12.164;2023-11-21T07:47:53;6.50;99.65
68248;SHT30;55064;49.636;12.164;2023-11-21T07:50:18;6.52;99.51
68248;SHT30;55064;49.636;12.164;2023-11-21T07:52:45;6.56;99.54
68248;SHT30;55064;49.636;12.164;2023-11-21T07:55:10;6.56;99.63
68248;SHT30;55064;49.636;12.164;2023-11-21T07:57:36;6.56;99.55
68248;SHT30;55064;49.636;12.164;2023-11-21T08:00:03;6.61;99.39
68248;SHT30;55064;49.636;12.164;2023-11-21T08:02:28;6.55;99.39
68248;SHT30;55064;49.636;12.164;2023-11-21T08:04:54;6.56;99.46
68248;SHT30;55064;49.636;12.164;2023-11-21T08:07:21;6.49;99.92
68248;SHT30;55064;49.636;12.164;2023-11-21T08:09:47;6.48;99.92
68248;SHT30;55064;49.636;12.164;2023-11-21T08:12:15;6.48;99.81
68248;SHT30;55064;49.636;12.164;2023-11-21T08:14:40;6.52;99.99
68248;SHT30;55064;49.636;12.164;2023-11-21T08:17:06;6.56;99.99
68248;SHT30;55064;49.636;12.164;2023-11-21T08:19:31;6.55;99.99
68248;SHT30;55064;49.636;12.164;2023-11-21T08:21:58;6.56;99.98
68248;SHT30;55064;49.636;12.164;2023-11-21T08:24:24;6.59;99.86
68248;SHT30;55064;49.636;12.164;2023-11-21T08:26:50;6.63;99.96
68248;SHT30;55064;49.636;12.164;2023-11-21T08:29:17;6.68;99.99
68248;SHT30;55064;49.636;12.164;2023-11-21T08:31:43;6.69;99.80
68248;SHT30;55064;49.636;12.164;2023-11-21T08:34:12;6.72;99.72
68248;SHT30;55064;49.636;12.164;2023-11-21T08:36:41;6.68;99.58
68248;SHT30;55064;49.636;12.164;2023-11-21T08:39:07;6.72;99.84
68248;SHT30;55064;49.636;12.164;2023-11-21T08:41:32;6.80;99.82
68248;SHT30;55064;49.636;12.164;2023-11-21T08:43:57;6.79;99.91
68248;SHT30;55064;49.636;12.164;2023-11-21T08:46:23;6.69;99.68
68248;SHT30;55064;49.636;12.164;2023-11-21T08:48:51;6.72;99.57
68248;SHT30;55064;49.636;12.164;2023-11-21T08:51:17;6.72;99.81
68248;SHT30;55064;49.636;12.164;2023-11-21T08:53:43;6.77;99.43
68248;SHT30;55064;49.636;12.164;2023-11-21T08:56:12;6.83;99.50
68248;SHT30;55064;49.636;12.164;2023-11-21T08:58:39;6.89;99.28
68248;SHT30;55064;49.636;12.164;2023-11-21T09:01:05;6.93;99.32
68248;SHT30;55064;49.636;12.164;2023-11-21T09:03:31;6.90;98.89
68248;SHT30;55064;49.636;12.164;2023-11-21T09:05:59;6.89;99.27
68248;SHT30;55064;49.636;12.164;2023-11-21T09:08:24;6.90;99.19
68248;SHT30;55064;49.636;12.164;2023-11-21T09:10:50;6.96;99.02
68248;SHT30;55064;49.636;12.164;2023-11-21T09:13:15;6.99;98.99
68248;SHT30;55064;49.636;12.164;2023-11-21T09:15:42;7.00;98.76
68248;SHT30;55064;49.636;12.164;2023-11-21T09:18:09;7.03;98.90
68248;SHT30;55064;49.636;12.164;2023-11-21T09:20:35;7.07;99.00
68248;SHT30;55064;49.636;12.164;2023-11-21T09:23:00;7.01;98.56
68248;SHT30;55064;49.636;12.164;2023-11-21T09:25:26;7.07;98.54
68248;SHT30;55064;49.636;12.164;2023-11-21T09:27:51;7.08;98.70
68248;SHT30;55064;49.636;12.164;2023-11-21T09:30:17;7.12;98.60
68248;SHT30;55064;49.636;12.164;2023-11-21T09:32:42;7.14;98.23
68248;SHT30;55064;49.636;12.164;2023-11-21T09:35:10;7.11;98.18
68248;SHT30;55064;49.636;12.164;2023-11-21T09:37:36;7.12;98.32
68248;SHT30;55064;49.636;12.164;2023-11-21T09:40:03;7.11;98.20
68248;SHT30;55064;49.636;12.164;2023-11-21T09:42:34;7.10;98.35
68248;SHT30;55064;49.636;12.164;2023-11-21T09:45:15;7.12;98.39
68248;SHT30;55064;49.636;12.164;2023-11-21T09:47:43;7.15;98.64
68248;SHT30;55064;49.636;12.164;2023-11-21T09:50:09;7.19;98.94
68248;SHT30;55064;49.636;12.164;2023-11-21T09:53:19;7.18;98.82
68248;SHT30;55064;49.636;12.164;2023-11-21T09:55:51;7.18;99.00
68248;SHT30;55064;49.636;12.164;2023-11-21T09:58:18;7.22;99.26
68248;SHT30;55064;49.636;12.164;2023-11-21T10:00:46;7.18;99.21
68248;SHT30;55064;49.636;12.164;2023-11-21T10:03:12;7.18;99.41
68248;SHT30;55064;49.636;12.164;2023-11-21T10:05:38;7.18;99.31
68248;SHT30;55064;49.636;12.164;2023-11-21T10:08:13;7.22;99.78
68248;SHT30;55064;49.636;12.164;2023-11-21T10:10:46;7.21;99.72
68248;SHT30;55064;49.636;12.164;2023-11-21T10:13:14;7.19;99.81
68248;SHT30;55064;49.636;12.164;2023-11-21T10:15:42;7.15;99.84
68248;SHT30;55064;49.636;12.164;2023-11-21T10:18:14;7.19;99.82
68248;SHT30;55064;49.636;12.164;2023-11-21T10:20:40;7.25;99.94
68248;SHT30;55064;49.636;12.164;2023-11-21T10:23:06;7.22;99.90
68248;SHT30;55064;49.636;12.164;2023-11-21T10:25:36;7.19;99.99
68248;SHT30;55064;49.636;12.164;2023-11-21T10:28:02;7.22;99.96
68248;SHT30;55064;49.636;12.164;2023-11-21T10:30:39;7.25;99.99
68248;SHT30;55064;49.636;12.164;2023-11-21T10:33:05;7.45;99.99
68248;SHT30;55064;49.636;12.164;2023-11-21T10:35:47;7.49;99.71
68248;SHT30;55064;49.636;12.164;2023-11-21T10:38:19;7.59;99.43
68248;SHT30;55064;49.636;12.164;2023-11-21T10:40:47;7.61;99.39
68248;SHT30;55064;49.636;12.164;2023-11-21T10:43:14;7.62;99.39
68248;SHT30;55064;49.636;12.164;2023-11-21T10:45:44;7.65;99.53
68248;SHT30;55064;49.636;12.164;2023-11-21T10:48:10;7.63;99.24
68248;SHT30;55064;49.636;12.164;2023-11-21T10:50:36;7.73;99.57
68248;SHT30;55064;49.636;12.164;2023-11-21T10:53:05;7.69;99.49
68248;SHT30;55064;49.636;12.164;2023-11-21T10:55:32;7.69;99.49
68248;SHT30;55064;49.636;12.164;2023-11-21T10:57:59;7.69;99.44
68248;SHT30;55064;49.636;12.164;2023-11-21T11:00:26;7.80;99.45
68248;SHT30;55064;49.636;12.164;2023-11-21T11:02:52;7.91;98.75
68248;SHT30;55064;49.636;12.164;2023-11-21T11:05:22;7.95;98.05
68248;SHT30;55064;49.636;12.164;2023-11-21T11:07:56;8.03;98.19
68248;SHT30;55064;49.636;12.164;2023-11-21T11:10:28;7.95;97.97
68248;SHT30;55064;49.636;12.164;2023-11-21T11:12:57;7.93;98.06
68248;SHT30;55064;49.636;12.164;2023-11-21T11:15:25;7.94;98.29
68248;SHT30;55064;49.636;12.164;2023-11-21T11:17:51;7.95;97.97
68248;SHT30;55064;49.636;12.164;2023-11-21T11:20:17;7.93;97.27
68248;SHT30;55064;49.636;12.164;2023-11-21T11:28:22;8.01;97.14
68248;SHT30;55064;49.636;12.164;2023-11-21T11:31:05;8.12;97.31
68248;SHT30;55064;49.636;12.164;2023-11-21T11:33:48;8.20;96.50
68248;SHT30;55064;49.636;12.164;2023-11-21T11:36:28;8.24;96.44
68248;SHT30;55064;49.636;12.164;2023-11-21T11:38:54;8.21;96.23
68248;SHT30;55064;49.636;12.164;2023-11-21T11:41:31;8.32;96.21
68248;SHT30;55064;49.636;12.164;2023-11-21T11:44:02;8.39;96.34
68248;SHT30;55064;49.636;12.164;2023-11-21T11:46:45;8.44;95.69
68248;SHT30;55064;49.636;12.164;2023-11-21T11:49:29;8.37;94.78
68248;SHT30;55064;49.636;12.164;2023-11-21T11:54:59;8.55;94.61
68248;SHT30;55064;49.636;12.164;2023-11-21T11:57:25;8.62;94.64
68248;SHT30;55064;49.636;12.164;2023-11-21T12:02:59;8.62;94.68
68248;SHT30;55064;49.636;12.164;2023-11-21T12:05:27;8.60;94.66
68248;SHT30;55064;49.636;12.164;2023-11-21T12:07:57;8.55;93.61
68248;SHT30;55064;49.636;12.164;2023-11-21T12:10:31;8.52;94.17
68248;SHT30;55064;49.636;12.164;2023-11-21T12:12:58;8.59;94.60
68248;SHT30;55064;49.636;12.164;2023-11-21T12:15:24;8.65;94.37
68248;SHT30;55064;49.636;12.164;2023-11-21T12:17:52;8.60;94.10
68248;SHT30;55064;49.636;12.164;2023-11-21T12:20:19;8.44;93.16
68248;SHT30;55064;49.636;12.164;2023-11-21T12:22:50;8.50;93.43
68248;SHT30;55064;49.636;12.164;2023-11-21T12:25:20;8.50;93.38
68248;SHT30;55064;49.636;12.164;2023-11-21T12:27:47;8.52;93.54
68248;SHT30;55064;49.636;12.164;2023-11-21T12:30:15;8.60;93.58
68248;SHT30;55064;49.636;12.164;2023-11-21T12:32:43;8.65;93.63
68248;SHT30;55064;49.636;12.164;2023-11-21T12:35:10;8.73;93.64
68248;SHT30;55064;49.636;12.164;2023-11-21T12:37:39;8.81;93.31
68248;SHT30;55064;49.636;12.164;2023-11-21T12:40:07;8.94;92.67
68248;SHT30;55064;49.636;12.164;2023-11-21T12:42:34;9.03;91.99
68248;SHT30;55064;49.636;12.164;2023-11-21T12:45:19;9.13;91.33
68248;SHT30;55064;49.636;12.164;2023-11-21T12:47:55;8.97;92.08
68248;SHT30;55064;49.636;12.164;2023-11-21T12:50:29;9.11;92.00
68248;SHT30;55064;49.636;12.164;2023-11-21T12:53:02;8.94;91.86
68248;SHT30;55064;49.636;12.164;2023-11-21T12:55:33;8.93;92.59
68248;SHT30;55064;49.636;12.164;2023-11-21T12:58:03;8.87;94.44
68248;SHT30;55064;49.636;12.164;2023-11-21T13:00:46;8.81;93.88
68248;SHT30;55064;49.636;12.164;2023-11-21T13:03:13;8.70;94.29
68248;SHT30;55064;49.636;12.164;2023-11-21T13:05:43;8.73;94.17
68248;SHT30;55064;49.636;12.164;2023-11-21T13:08:16;8.66;94.82
68248;SHT30;55064;49.636;12.164;2023-11-21T13:10:45;8.66;94.70
68248;SHT30;55064;49.636;12.164;2023-11-21T13:13:13;8.59;94.24
68248;SHT30;55064;49.636;12.164;2023-11-21T13:15:53;8.59;93.44
68248;SHT30;55064;49.636;12.164;2023-11-21T13:18:25;8.49;94.12
68248;SHT30;55064;49.636;12.164;2023-11-21T13:20:55;8.48;94.64
68248;SHT30;55064;49.636;12.164;2023-11-21T13:23:21;8.52;94.88
68248;SHT30;55064;49.636;12.164;2023-11-21T13:25:48;8.49;94.71
68248;SHT30;55064;49.636;12.164;2023-11-21T13:28:14;8.50;95.97
68248;SHT30;55064;49.636;12.164;2023-11-21T13:30:41;8.50;95.58
68248;SHT30;55064;49.636;12.164;2023-11-21T13:33:07;8.49;96.29
68248;SHT30;55064;49.636;12.164;2023-11-21T13:35:37;8.45;95.91
68248;SHT30;55064;49.636;12.164;2023-11-21T13:40:33;8.39;95.15
68248;SHT30;55064;49.636;12.164;2023-11-21T13:43:05;8.45;95.65
68248;SHT30;55064;49.636;12.164;2023-11-21T13:45:30;8.55;96.37
68248;SHT30;55064;49.636;12.164;2023-11-21T13:47:56;8.60;95.60
68248;SHT30;55064;49.636;12.164;2023-11-21T13:50:25;8.63;94.98
68248;SHT30;55064;49.636;12.164;2023-11-21T13:53:00;8.72;94.63
68248;SHT30;55064;49.636;12.164;2023-11-21T13:55:34;8.75;94.82
68248;SHT30;55064;49.636;12.164;2023-11-21T13:58:01;8.79;94.61
68248;SHT30;55064;49.636;12.164;2023-11-21T14:00:27;8.83;93.40
68248;SHT30;55064;49.636;12.164;2023-11-21T14:03:11;8.83;93.37
68248;SHT30;55064;49.636;12.164;2023-11-21T14:05:48;8.79;93.27
68248;SHT30;55064;49.636;12.164;2023-11-21T14:08:20;8.84;93.53
68248;SHT30;55064;49.636;12.164;2023-11-21T14:10:49;8.93;94.45
68248;SHT30;55064;49.636;12.164;2023-11-21T14:13:23;8.83;93.16
68248;SHT30;55064;49.636;12.164;2023-11-21T14:15:50;8.84;93.87
68248;SHT30;55064;49.636;12.164;2023-11-21T14:18:26;8.86;94.16
68248;SHT30;55064;49.636;12.164;2023-11-21T14:21:16;8.84;94.25
68248;SHT30;55064;49.636;12.164;2023-11-21T14:23:41;8.83;92.93
68248;SHT30;55064;49.636;12.164;2023-11-21T14:26:07;8.81;93.92
68248;SHT30;55064;49.636;12.164;2023-11-21T14:28:32;8.77;94.56
68248;SHT30;55064;49.636;12.164;2023-11-21T14:31:00;8.75;94.44
68248;SHT30;55064;49.636;12.164;2023-11-21T14:33:25;8.69;94.36
68248;SHT30;55064;49.636;12.164;2023-11-21T14:35:50;8.70;95.02
68248;SHT30;55064;49.636;12.164;2023-11-21T14:38:16;8.77;95.30
68248;SHT30;55064;49.636;12.164;2023-11-21T14:40:41;8.76;95.05
68248;SHT30;55064;49.636;12.164;2023-11-21T14:43:06;8.70;94.67
68248;SHT30;55064;49.636;12.164;2023-11-21T14:45:32;8.67;94.98
68248;SHT30;55064;49.636;12.164;2023-11-21T14:47:58;8.66;92.70
68248;SHT30;55064;49.636;12.164;2023-11-21T14:50:33;8.59;92.64
68248;SHT30;55064;49.636;12.164;2023-11-21T14:53:11;8.52;91.44
68248;SHT30;55064;49.636;12.164;2023-11-21T14:55:38;8.48;90.84
68248;SHT30;55064;49.636;12.164;2023-11-21T14:58:16;8.45;90.73
68248;SHT30;55064;49.636;12.164;2023-11-21T15:00:57;8.42;91.17
68248;SHT30;55064;49.636;12.164;2023-11-21T15:03:32;8.31;89.96
68248;SHT30;55064;49.636;12.164;2023-11-21T15:06:03;8.31;90.73
68248;SHT30;55064;49.636;12.164;2023-11-21T15:08:49;8.34;90.32
68248;SHT30;55064;49.636;12.164;2023-11-21T15:11:20;8.35;90.76
68248;SHT30;55064;49.636;12.164;2023-11-21T15:13:50;8.34;90.65
68248;SHT30;55064;49.636;12.164;2023-11-21T15:16:17;8.27;90.50
68248;SHT30;55064;49.636;12.164;2023-11-21T15:18:43;8.24;90.55
68248;SHT30;55064;49.636;12.164;2023-11-21T15:21:08;8.18;89.93
68248;SHT30;55064;49.636;12.164;2023-11-21T15:23:36;8.24;90.99
68248;SHT30;55064;49.636;12.164;2023-11-21T15:26:01;8.18;91.01
68248;SHT30;55064;49.636;12.164;2023-11-21T15:28:30;8.12;90.50
68248;SHT30;55064;49.636;12.164;2023-11-21T15:30:57;8.03;91.03
68248;SHT30;55064;49.636;12.164;2023-11-21T15:33:23;7.94;91.11
68248;SHT30;55064;49.636;12.164;2023-11-21T15:35:48;7.94;91.44
68248;SHT30;55064;49.636;12.164;2023-11-21T15:38:14;7.80;91.96
68248;SHT30;55064;49.636;12.164;2023-11-21T15:40:39;7.80;92.06
68248;SHT30;55064;49.636;12.164;2023-11-21T15:43:04;7.69;92.16
68248;SHT30;55064;49.636;12.164;2023-11-21T15:45:32;7.56;92.53
68248;SHT30;55064;49.636;12.164;2023-11-21T15:47:57;7.49;93.15